Time;durP1;ratioP1;P1;durP2;ratioP2;P2;SDS_P1;SDS_P2;PMS_P1;PMS_P2;Temp;Humidity;BMP_temperature;BMP_pressure;BME280_temperature;BME280_humidity;BME280_pressure;Samples;Min_cycle;Max_cycle;Signal;HPM_P1;HPM_P2
2022/07/18 00:00:08;;;;;;;4.43;1.73;;;28.30;51.20;;;;;;5051550;28;20029;-76
2022/07/18 00:02:34;;;;;;;2.00;1.60;;;28.20;50.60;;;;;;5053262;28;20090;-76
2022/07/18 00:04:59;;;;;;;3.30;1.67;;;28.30;50.80;;;;;;5050438;28;20477;-76
2022/07/18 00:07:25;;;;;;;2.20;1.73;;;28.40;50.30;;;;;;5052331;28;20036;-76
2022/07/18 00:09:51;;;;;;;1.80;1.70;;;28.40;50.30;;;;;;5034384;28;20025;-76
2022/07/18 00:12:17;;;;;;;4.68;1.98;;;28.40;50.20;;;;;;5051966;28;20075;-76
2022/07/18 00:14:42;;;;;;;2.72;2.03;;;28.30;49.10;;;;;;5050820;28;20481;-76
2022/07/18 00:17:08;;;;;;;3.03;2.00;;;28.30;49.90;;;;;;5051776;28;20029;-77
2022/07/18 00:19:35;;;;;;;3.63;1.88;;;28.00;49.70;;;;;;5051195;28;20012;-76
2022/07/18 00:22:01;;;;;;;2.20;1.98;;;27.90;50.00;;;;;;5053137;28;20033;-77
2022/07/18 00:24:27;;;;;;;2.88;1.60;;;27.90;50.10;;;;;;5051809;28;20107;-76
2022/07/18 00:26:53;;;;;;;4.38;1.70;;;28.00;50.10;;;;;;5052084;28;20039;-76
2022/07/18 00:29:19;;;;;;;2.75;1.75;;;28.10;50.30;;;;;;5051972;28;20029;-76
2022/07/18 00:31:45;;;;;;;3.25;2.30;;;28.20;50.40;;;;;;5051784;28;20401;-76
2022/07/18 00:34:10;;;;;;;3.10;2.00;;;28.10;49.80;;;;;;5049943;28;20079;-76
2022/07/18 00:36:36;;;;;;;2.30;1.63;;;28.10;49.90;;;;;;5052423;28;20034;-76
2022/07/18 00:39:02;;;;;;;7.13;2.75;;;28.10;49.80;;;;;;5049642;28;20032;-76
2022/07/18 00:41:28;;;;;;;3.17;1.73;;;28.20;49.90;;;;;;5052000;28;20104;-76
2022/07/18 00:43:54;;;;;;;2.03;1.63;;;28.30;50.00;;;;;;5050945;28;20156;-76
2022/07/18 00:46:26;;;;;;;2.20;2.00;;;28.30;50.00;;;;;;5050942;28;20056;-76
2022/07/18 00:48:53;;;;;;;3.30;1.98;;;28.30;49.20;;;;;;5051648;28;20040;-76
2022/07/18 00:51:19;;;;;;;3.50;2.00;;;28.20;49.10;;;;;;5034171;28;20047;-76
2022/07/18 00:53:47;;;;;;;4.10;1.80;;;28.10;48.80;;;;;;5050675;28;20028;-76
2022/07/18 00:56:16;;;;;;;2.55;1.92;;;28.10;49.30;;;;;;5052600;28;20036;-76
2022/07/18 00:58:43;;;;;;;4.97;1.90;;;28.20;49.40;;;;;;5052549;28;20432;-77
2022/07/18 01:03:54;;;;;;;2.75;1.80;;;28.10;49.00;;;;;;5039127;28;20393;-76
2022/07/18 01:06:20;;;;;;;3.92;1.50;;;28.20;48.90;;;;;;5049914;28;20029;-76
2022/07/18 01:08:45;;;;;;;2.80;1.60;;;28.20;48.90;;;;;;5052300;28;20442;-82
2022/07/18 01:11:12;;;;;;;2.75;1.65;;;28.30;48.90;;;;;;5052386;28;20029;-83
2022/07/18 01:13:38;;;;;;;2.97;2.08;;;28.20;48.80;;;;;;5050686;28;20039;-83
2022/07/18 01:16:05;;;;;;;1.90;1.60;;;28.20;48.50;;;;;;5052031;28;20112;-82
2022/07/18 01:18:30;;;;;;;2.15;1.85;;;28.20;48.70;;;;;;5051304;28;20044;-82
2022/07/18 01:20:56;;;;;;;12.27;2.45;;;28.20;48.80;;;;;;5052605;28;20095;-82
2022/07/18 01:23:22;;;;;;;1.92;1.70;;;28.20;48.80;;;;;;5049447;28;20029;-82
2022/07/18 01:25:48;;;;;;;1.63;1.50;;;28.20;48.60;;;;;;5055489;28;20120;-81
2022/07/18 01:28:14;;;;;;;2.65;1.88;;;28.20;48.60;;;;;;5055054;28;20377;-82
2022/07/18 01:30:39;;;;;;;2.92;1.73;;;28.20;48.70;;;;;;5055549;28;20021;-81
2022/07/18 01:33:05;;;;;;;5.75;1.77;;;28.20;48.60;;;;;;5055290;28;20048;-81
2022/07/18 01:35:32;;;;;;;2.60;1.83;;;28.10;48.40;;;;;;5037911;28;20033;-81
2022/07/18 01:37:59;;;;;;;4.18;1.95;;;28.10;48.30;;;;;;5055193;28;20028;-82
2022/07/18 01:40:27;;;;;;;3.83;1.80;;;28.10;48.60;;;;;;5055945;28;20025;-81
2022/07/18 01:42:53;;;;;;;2.03;1.60;;;28.10;48.50;;;;;;5054007;28;20393;-81
2022/07/18 01:45:20;;;;;;;3.63;1.80;;;28.00;48.50;;;;;;5055690;28;20045;-81
2022/07/18 01:47:46;;;;;;;3.78;2.03;;;28.00;48.60;;;;;;5055459;28;20025;-80
2022/07/18 01:50:12;;;;;;;5.47;2.45;;;28.00;48.60;;;;;;5055367;28;20465;-80
2022/07/18 01:52:38;;;;;;;2.83;1.67;;;27.90;48.50;;;;;;5055462;28;20385;-81
2022/07/18 01:55:06;;;;;;;4.22;2.00;;;27.80;48.70;;;;;;5053275;28;20033;-81
2022/07/18 01:57:32;;;;;;;3.95;2.08;;;27.80;48.90;;;;;;5033833;28;20041;-81
2022/07/18 01:59:58;;;;;;;5.28;1.73;;;27.80;48.90;;;;;;5053940;28;20458;-82
2022/07/18 02:02:23;;;;;;;2.22;1.67;;;27.80;49.00;;;;;;5055915;28;20029;-81
2022/07/18 02:05:02;;;;;;;3.60;2.15;;;27.80;49.10;;;;;;5053766;28;20037;-81
2022/07/18 02:07:32;;;;;;;1.92;1.30;;;27.70;49.20;;;;;;5054920;28;20122;-81
2022/07/18 02:09:59;;;;;;;1.63;1.50;;;27.60;49.20;;;;;;5054041;28;20154;-82
2022/07/18 02:12:25;;;;;;;2.08;1.45;;;27.70;49.30;;;;;;5055659;28;20037;-82
2022/07/18 02:14:51;;;;;;;2.13;1.60;;;27.60;49.30;;;;;;5055028;28;20465;-83
2022/07/18 02:17:19;;;;;;;4.28;1.85;;;27.60;49.30;;;;;;5055392;28;20081;-83
2022/07/18 02:19:44;;;;;;;2.08;1.38;;;27.60;49.40;;;;;;5054551;28;20024;-82
2022/07/18 02:22:10;;;;;;;3.92;1.40;;;27.60;49.30;;;;;;5054218;28;20021;-83
2022/07/18 02:24:36;;;;;;;3.60;1.60;;;27.70;49.20;;;;;;5055106;28;20029;-83
2022/07/18 02:27:02;;;;;;;2.97;1.35;;;27.80;49.30;;;;;;5055936;28;20441;-83
2022/07/18 02:29:28;;;;;;;2.63;1.30;;;27.70;49.20;;;;;;5037506;28;20176;-82
2022/07/18 02:31:54;;;;;;;2.78;1.80;;;27.80;49.20;;;;;;5055301;28;20462;-82
2022/07/18 02:34:20;;;;;;;2.25;1.50;;;27.80;49.20;;;;;;5055095;28;20384;-82
2022/07/18 02:36:45;;;;;;;4.55;1.95;;;27.80;49.30;;;;;;5053497;28;20079;-82
2022/07/18 02:39:11;;;;;;;2.20;1.42;;;27.80;49.40;;;;;;5054639;28;20488;-82
2022/07/18 02:41:37;;;;;;;4.88;1.45;;;27.80;49.40;;;;;;5054548;28;20077;-82
2022/07/18 02:44:04;;;;;;;1.42;1.30;;;27.80;49.50;;;;;;5054154;28;20048;-82
2022/07/18 02:46:29;;;;;;;2.05;1.27;;;27.70;49.30;;;;;;5055216;28;20155;-83
2022/07/18 02:48:55;;;;;;;1.17;1.08;;;27.70;49.40;;;;;;5054253;28;20453;-81
2022/07/18 02:51:21;;;;;;;1.80;1.65;;;27.60;49.60;;;;;;5052671;28;20086;-81
2022/07/18 02:53:46;;;;;;;1.80;1.30;;;27.60;50.10;;;;;;5050581;28;20040;-81
2022/07/18 02:56:12;;;;;;;2.22;1.70;;;27.60;49.90;;;;;;5055217;28;20029;-82
2022/07/18 02:58:38;;;;;;;2.70;1.55;;;27.50;50.00;;;;;;5054678;28;20094;-82
2022/07/18 03:01:04;;;;;;;1.75;1.40;;;27.50;50.00;;;;;;5054447;28;20370;-81
2022/07/18 03:03:29;;;;;;;2.42;1.42;;;27.40;50.20;;;;;;5053084;28;20045;-81
2022/07/18 03:05:55;;;;;;;3.03;1.40;;;27.40;50.20;;;;;;5054118;28;20025;-81
2022/07/18 03:08:21;;;;;;;1.92;1.30;;;27.40;50.20;;;;;;5053611;28;20028;-77
2022/07/18 03:10:46;;;;;;;2.47;1.40;;;27.40;50.20;;;;;;5054599;28;20017;-77
2022/07/18 03:13:12;;;;;;;2.83;1.23;;;27.40;50.30;;;;;;5053577;28;20223;-76
2022/07/18 03:15:39;;;;;;;2.42;1.40;;;27.40;50.40;;;;;;5035815;28;20040;-76
2022/07/18 03:18:05;;;;;;;2.33;1.30;;;27.40;50.40;;;;;;5052328;28;20029;-76
2022/07/18 03:20:30;;;;;;;4.55;1.73;;;27.40;50.10;;;;;;5053700;28;20044;-76
2022/07/18 03:22:56;;;;;;;2.40;1.65;;;27.30;50.40;;;;;;5053410;28;20039;-75
2022/07/18 03:25:22;;;;;;;1.60;1.38;;;27.30;50.30;;;;;;5054031;28;20083;-75
2022/07/18 03:27:48;;;;;;;1.77;1.30;;;27.30;50.20;;;;;;5053668;28;20469;-76
2022/07/18 03:30:14;;;;;;;1.33;1.10;;;27.30;50.20;;;;;;5054450;28;20095;-76
2022/07/18 03:32:39;;;;;;;1.90;1.30;;;27.30;50.20;;;;;;5051780;28;20068;-77
2022/07/18 03:35:06;;;;;;;2.85;1.80;;;27.30;50.20;;;;;;5052785;28;20033;-76
2022/07/18 03:37:31;;;;;;;2.35;1.70;;;27.20;50.00;;;;;;5053048;28;20043;-76
2022/07/18 03:39:57;;;;;;;1.77;1.50;;;27.20;50.20;;;;;;5052645;28;20036;-76
2022/07/18 03:42:23;;;;;;;6.40;1.75;;;27.20;50.20;;;;;;5054123;28;20100;-76
2022/07/18 03:44:48;;;;;;;7.75;2.00;;;27.20;50.00;;;;;;5053102;28;20056;-76
2022/07/18 03:47:14;;;;;;;12.30;1.73;;;27.20;50.00;;;;;;5052204;28;20064;-77
2022/07/18 03:49:39;;;;;;;2.63;1.30;;;27.20;50.00;;;;;;5051770;28;20021;-76
2022/07/18 03:52:05;;;;;;;3.17;1.25;;;27.20;50.00;;;;;;5053559;28;20040;-76
2022/07/18 03:54:31;;;;;;;2.75;1.40;;;27.20;50.00;;;;;;5052516;28;20492;-77
2022/07/18 03:56:56;;;;;;;1.25;1.13;;;27.30;49.80;;;;;;5053324;28;20078;-76
2022/07/18 03:59:22;;;;;;;2.20;1.48;;;27.30;49.60;;;;;;5052390;28;20078;-77
2022/07/18 04:01:48;;;;;;;1.52;1.13;;;27.20;49.50;;;;;;5052202;28;20044;-76
2022/07/18 04:04:14;;;;;;;1.45;1.20;;;27.20;49.60;;;;;;5052062;28;20035;-77
2022/07/18 04:06:39;;;;;;;1.98;1.27;;;27.20;49.60;;;;;;5053320;28;20135;-78
2022/07/18 04:09:05;;;;;;;1.52;1.23;;;27.20;49.60;;;;;;5051658;28;20060;-78
2022/07/18 04:11:31;;;;;;;2.60;1.60;;;27.20;49.60;;;;;;5053048;28;20393;-77
2022/07/18 04:13:57;;;;;;;3.90;1.55;;;27.20;49.70;;;;;;5051992;28;20119;-77
2022/07/18 04:16:22;;;;;;;3.13;1.60;;;27.20;49.60;;;;;;5051216;28;20087;-78
2022/07/18 04:18:49;;;;;;;1.95;1.08;;;27.30;49.70;;;;;;5050624;28;20028;-78
2022/07/18 04:21:15;;;;;;;1.80;1.38;;;27.30;49.50;;;;;;5052337;28;20025;-76
2022/07/18 04:23:42;;;;;;;3.45;1.70;;;27.40;49.40;;;;;;5033975;28;20039;-77
2022/07/18 04:26:08;;;;;;;2.30;1.30;;;27.40;49.30;;;;;;5052781;28;20044;-78
2022/07/18 04:28:35;;;;;;;1.75;1.45;;;27.40;49.30;;;;;;5045267;28;20028;-79
2022/07/18 04:31:01;;;;;;;3.45;1.45;;;27.40;49.30;;;;;;5052683;28;20036;-83
2022/07/18 04:33:27;;;;;;;2.97;1.45;;;27.40;49.30;;;;;;5050886;28;20021;-77
2022/07/18 04:35:52;;;;;;;5.28;1.80;;;27.40;49.50;;;;;;5051410;28;20105;-77
2022/07/18 04:38:18;;;;;;;3.03;1.45;;;27.40;49.50;;;;;;5051558;28;20138;-76
2022/07/18 04:40:44;;;;;;;1.88;1.40;;;27.40;49.60;;;;;;5050818;28;20048;-76
2022/07/18 04:43:09;;;;;;;2.03;1.23;;;27.40;49.80;;;;;;5050631;28;20157;-77
2022/07/18 04:45:36;;;;;;;2.20;1.27;;;27.40;49.70;;;;;;5050168;28;20079;-79
2022/07/18 04:48:04;;;;;;;2.45;1.08;;;27.50;49.90;;;;;;5042918;28;20656;-84
2022/07/18 04:50:30;;;;;;;2.13;1.35;;;27.50;49.90;;;;;;5051321;28;20033;-86
2022/07/18 04:52:56;;;;;;;1.30;1.00;;;27.50;50.00;;;;;;5051198;28;20174;-82
2022/07/18 04:55:23;;;;;;;1.55;1.20;;;27.50;49.80;;;;;;5051806;28;20027;-77
2022/07/18 04:57:50;;;;;;;1.10;1.00;;;27.60;49.90;;;;;;5051681;28;20107;-76
2022/07/18 05:00:19;;;;;;;2.53;1.38;;;27.60;49.90;;;;;;5056997;28;20473;-76
2022/07/18 05:02:47;;;;;;;1.25;1.02;;;27.70;49.80;;;;;;5058734;28;20404;-77
2022/07/18 05:05:14;;;;;;;1.70;1.17;;;27.70;49.60;;;;;;5057904;28;20025;-77
2022/07/18 05:07:41;;;;;;;1.70;1.08;;;27.70;49.90;;;;;;5057620;28;20035;-77
2022/07/18 05:10:09;;;;;;;3.78;1.45;;;27.60;49.40;;;;;;5058982;28;20025;-77
2022/07/18 05:12:36;;;;;;;1.98;1.52;;;27.60;49.30;;;;;;5056996;28;20033;-77
2022/07/18 05:15:06;;;;;;;1.55;1.15;;;27.60;49.40;;;;;;5059235;28;20464;-77
2022/07/18 05:17:32;;;;;;;4.47;1.50;;;27.60;49.50;;;;;;5052037;28;20040;-77
2022/07/18 05:19:57;;;;;;;2.35;1.40;;;27.60;49.50;;;;;;5057132;28;20069;-76
2022/07/18 05:22:23;;;;;;;1.70;1.08;;;27.60;49.60;;;;;;5056272;28;20048;-77
2022/07/18 05:24:49;;;;;;;1.58;1.10;;;27.60;49.40;;;;;;5058158;28;20036;-76
2022/07/18 05:27:15;;;;;;;7.85;1.48;;;27.60;49.10;;;;;;5056499;28;20033;-78
2022/07/18 05:29:41;;;;;;;2.30;1.20;;;27.50;49.00;;;;;;5049770;28;20102;-85
2022/07/18 05:32:07;;;;;;;3.00;1.38;;;27.50;49.00;;;;;;5058623;28;20029;-84
2022/07/18 05:34:34;;;;;;;5.28;1.45;;;27.50;48.90;;;;;;5051391;28;20104;-77
2022/07/18 05:37:00;;;;;;;2.33;1.30;;;27.50;48.80;;;;;;5057700;28;20116;-77
2022/07/18 05:39:25;;;;;;;1.20;1.10;;;27.50;49.10;;;;;;5053706;28;20112;-81
2022/07/18 05:41:52;;;;;;;1.60;0.98;;;27.60;49.40;;;;;;5057268;28;20029;-78
2022/07/18 05:44:19;;;;;;;2.55;1.50;;;27.60;49.50;;;;;;5054852;28;20037;-79
2022/07/18 05:46:48;;;;;;;2.92;1.30;;;27.60;49.40;;;;;;5052345;28;20040;-79
2022/07/18 05:49:16;;;;;;;3.33;1.55;;;27.60;49.50;;;;;;5056495;28;20032;-78
2022/07/18 05:51:42;;;;;;;3.20;1.30;;;27.70;49.60;;;;;;5058716;28;20075;-80
2022/07/18 05:54:08;;;;;;;2.40;1.67;;;27.70;49.80;;;;;;5058943;28;20041;-79
2022/07/18 05:56:34;;;;;;;3.03;1.52;;;27.80;50.00;;;;;;5059102;28;20426;-78
2022/07/18 05:58:59;;;;;;;2.75;1.33;;;27.80;49.90;;;;;;5039775;28;20025;-78
2022/07/18 06:01:25;;;;;;;2.95;1.48;;;27.80;49.60;;;;;;5057852;28;20381;-79
2022/07/18 06:03:51;;;;;;;4.80;1.80;;;27.90;49.60;;;;;;5058513;28;20476;-79
2022/07/18 06:06:18;;;;;;;4.07;2.20;;;27.90;49.10;;;;;;5058660;28;20057;-79
2022/07/18 06:08:44;;;;;;;3.78;1.60;;;27.80;49.20;;;;;;5059010;28;20541;-79
2022/07/18 06:11:10;;;;;;;2.30;1.20;;;27.80;49.20;;;;;;5054728;28;20036;-78
2022/07/18 06:13:38;;;;;;;3.13;1.60;;;27.80;49.30;;;;;;5055284;28;20037;-79
2022/07/18 06:16:05;;;;;;;1.95;1.08;;;27.80;49.30;;;;;;5054203;28;20033;-79
2022/07/18 06:18:31;;;;;;;3.95;1.75;;;27.80;49.40;;;;;;5055068;28;20132;-79
2022/07/18 06:20:57;;;;;;;2.28;1.25;;;27.80;48.80;;;;;;5054987;28;20504;-79
2022/07/18 06:23:23;;;;;;;2.90;1.50;;;27.80;48.90;;;;;;5052942;28;20025;-79
2022/07/18 06:25:48;;;;;;;4.32;1.98;;;27.90;48.90;;;;;;5053954;28;20025;-79
2022/07/18 06:28:14;;;;;;;7.90;1.63;;;27.80;48.70;;;;;;5055037;28;20031;-80
2022/07/18 06:30:40;;;;;;;10.27;2.15;;;27.90;48.40;;;;;;5054259;28;20493;-79
2022/07/18 06:33:07;;;;;;;4.00;1.73;;;27.90;48.60;;;;;;5055240;28;20440;-79
2022/07/18 06:35:33;;;;;;;3.65;1.90;;;28.00;48.70;;;;;;5053075;28;20028;-79
2022/07/18 06:37:59;;;;;;;4.70;1.50;;;27.90;48.00;;;;;;5054348;28;20033;-80
2022/07/18 06:40:25;;;;;;;3.85;1.77;;;27.90;48.20;;;;;;5055293;28;20021;-79
2022/07/18 06:42:52;;;;;;;2.28;1.33;;;28.00;48.00;;;;;;5036521;28;20060;-78
2022/07/18 06:45:18;;;;;;;3.47;1.58;;;27.90;47.70;;;;;;5042437;28;20048;-78
2022/07/18 06:47:44;;;;;;;3.55;1.60;;;28.00;47.80;;;;;;5062134;28;20025;-79
2022/07/18 06:50:14;;;;;;;2.97;1.75;;;28.00;47.80;;;;;;5055278;28;20100;-84
2022/07/18 06:52:41;;;;;;;1.35;1.15;;;28.00;47.60;;;;;;5054785;28;20033;-83
2022/07/18 06:55:08;;;;;;;3.38;1.40;;;28.10;47.60;;;;;;5054398;28;20431;-83
2022/07/18 06:57:33;;;;;;;2.38;1.38;;;28.20;47.70;;;;;;5058779;28;20477;-85
2022/07/18 06:59:59;;;;;;;3.22;1.20;;;28.30;47.90;;;;;;5063045;28;20025;-84
2022/07/18 07:02:25;;;;;;;2.95;1.17;;;28.30;47.70;;;;;;5054535;28;20075;-85
2022/07/18 07:04:51;;;;;;;2.47;1.73;;;28.40;47.50;;;;;;5053617;28;20054;-83
2022/07/18 07:07:18;;;;;;;1.58;1.20;;;28.40;47.00;;;;;;5054715;28;20104;-83
2022/07/18 07:09:43;;;;;;;4.00;1.33;;;28.40;47.30;;;;;;5055250;28;20051;-83
2022/07/18 07:12:09;;;;;;;1.85;1.13;;;28.40;47.50;;;;;;5060522;28;20447;-83
2022/07/18 07:14:36;;;;;;;3.85;1.35;;;28.40;47.10;;;;;;5053383;28;20118;-84
2022/07/18 07:17:12;;;;;;;2.75;1.35;;;28.40;47.00;;;;;;5051401;28;20108;-83
2022/07/18 07:19:38;;;;;;;2.35;1.00;;;28.40;47.60;;;;;;5033681;28;20515;-82
2022/07/18 07:22:03;;;;;;;5.22;1.58;;;28.40;47.00;;;;;;5051288;28;20044;-83
2022/07/18 07:24:29;;;;;;;1.52;1.00;;;28.50;47.30;;;;;;5054893;28;20033;-82
2022/07/18 07:26:55;;;;;;;2.38;1.13;;;28.50;47.30;;;;;;5050065;28;20457;-83
2022/07/18 07:29:22;;;;;;;1.67;1.23;;;28.50;47.30;;;;;;5054351;28;20041;-82
2022/07/18 07:31:47;;;;;;;1.60;1.30;;;28.50;47.10;;;;;;5053276;28;20025;-81
2022/07/18 07:34:14;;;;;;;2.45;1.33;;;28.70;47.50;;;;;;5052645;28;20146;-83
2022/07/18 07:36:40;;;;;;;2.00;1.48;;;28.70;47.20;;;;;;5050906;28;20028;-82
2022/07/18 07:39:06;;;;;;;1.25;1.00;;;28.80;47.60;;;;;;5051379;28;20373;-83
2022/07/18 07:41:32;;;;;;;2.17;1.20;;;28.80;47.60;;;;;;5049164;28;20031;-81
2022/07/18 07:43:57;;;;;;;1.85;1.20;;;28.80;47.30;;;;;;5051859;28;20084;-82
2022/07/18 07:46:23;;;;;;;2.05;1.50;;;28.90;46.80;;;;;;5052082;28;20539;-82
2022/07/18 07:48:49;;;;;;;1.88;1.40;;;28.90;46.80;;;;;;5053237;28;20036;-81
2022/07/18 07:51:15;;;;;;;3.03;1.40;;;28.80;46.70;;;;;;5055390;28;20335;-83
2022/07/18 07:53:41;;;;;;;1.83;1.20;;;28.90;46.40;;;;;;5054669;28;20116;-84
2022/07/18 07:56:06;;;;;;;2.90;1.42;;;28.90;46.80;;;;;;5070761;28;20124;-83
2022/07/18 07:58:32;;;;;;;2.13;1.27;;;28.90;46.90;;;;;;5055693;28;20029;-84
2022/07/18 08:00:58;;;;;;;1.20;1.10;;;28.90;46.50;;;;;;5050408;28;20433;-83
2022/07/18 08:03:24;;;;;;;1.98;1.30;;;28.90;46.60;;;;;;5051111;28;20037;-82
2022/07/18 08:05:50;;;;;;;2.40;1.23;;;29.00;46.10;;;;;;5051604;28;20156;-82
2022/07/18 08:08:17;;;;;;;1.27;0.90;;;29.00;45.00;;;;;;5042625;28;20041;-82
2022/07/18 08:10:44;;;;;;;2.53;1.20;;;29.00;45.70;;;;;;5050185;28;20017;-84
2022/07/18 08:13:11;;;;;;;2.72;1.10;;;29.10;45.70;;;;;;5051636;28;20055;-83
2022/07/18 08:15:37;;;;;;;2.20;1.48;;;29.20;45.80;;;;;;5052792;28;20025;-84
2022/07/18 08:18:03;;;;;;;3.13;1.40;;;29.20;45.90;;;;;;5052428;28;20021;-82
2022/07/18 08:20:30;;;;;;;2.90;1.00;;;29.30;46.00;;;;;;5053001;28;20033;-82
2022/07/18 08:23:02;;;;;;;2.05;0.82;;;29.30;45.80;;;;;;5052852;28;20584;-82
2022/07/18 08:25:29;;;;;;;2.95;1.00;;;29.30;45.60;;;;;;5052020;28;20052;-82
2022/07/18 08:27:55;;;;;;;3.30;1.40;;;29.40;45.80;;;;;;5052374;28;20025;-83
2022/07/18 08:30:21;;;;;;;4.57;1.42;;;29.40;45.30;;;;;;5053159;28;20107;-83
2022/07/18 08:32:47;;;;;;;1.67;1.10;;;29.30;43.80;;;;;;5052401;28;20112;-82
2022/07/18 08:35:13;;;;;;;1.10;0.95;;;29.30;45.10;;;;;;5048155;28;20028;-83
2022/07/18 08:37:39;;;;;;;3.83;1.17;;;29.30;44.60;;;;;;5052325;28;20116;-82
2022/07/18 08:40:05;;;;;;;3.15;1.40;;;29.30;44.60;;;;;;5052905;28;20105;-83
2022/07/18 08:42:33;;;;;;;1.52;1.15;;;29.40;44.70;;;;;;5052614;28;20082;-80
2022/07/18 08:44:59;;;;;;;3.88;1.40;;;29.50;44.60;;;;;;5033233;28;20083;-81
2022/07/18 08:47:29;;;;;;;3.15;1.55;;;29.60;44.80;;;;;;5052162;28;20059;-78
2022/07/18 08:49:54;;;;;;;6.72;1.08;;;29.70;45.10;;;;;;5051669;28;20698;-82
2022/07/18 08:52:21;;;;;;;3.13;1.08;;;29.70;45.40;;;;;;5052006;28;20037;-82
2022/07/18 08:54:48;;;;;;;3.28;1.15;;;29.80;45.50;;;;;;5050645;28;20556;-82
2022/07/18 08:57:15;;;;;;;2.30;0.95;;;29.90;45.30;;;;;;5052262;28;20116;-82
2022/07/18 08:59:41;;;;;;;2.97;1.30;;;29.90;45.20;;;;;;5051090;28;20508;-82
2022/07/18 09:02:07;;;;;;;3.70;1.17;;;30.00;45.50;;;;;;5049128;28;20064;-84
2022/07/18 09:04:40;;;;;;;2.80;1.30;;;30.10;45.60;;;;;;5050826;28;20079;-81
2022/07/18 09:07:08;;;;;;;1.52;1.13;;;30.10;45.60;;;;;;5030516;28;20037;-83
2022/07/18 09:09:35;;;;;;;1.52;1.15;;;30.20;45.90;;;;;;5052685;28;20573;-82
2022/07/18 09:12:04;;;;;;;1.60;0.90;;;30.20;45.50;;;;;;5034209;28;20412;-83
2022/07/18 09:14:31;;;;;;;1.93;1.07;;;30.20;45.50;;;;;;5050704;28;20029;-82
2022/07/18 09:17:02;;;;;;;3.33;1.45;;;30.30;45.70;;;;;;5042205;28;20067;-81
2022/07/18 09:19:28;;;;;;;3.30;1.60;;;30.40;46.10;;;;;;5050024;28;20060;-81
2022/07/18 09:21:54;;;;;;;3.55;1.67;;;30.50;46.00;;;;;;5044671;28;20055;-81
2022/07/18 09:24:20;;;;;;;5.13;1.50;;;30.40;45.90;;;;;;5049710;28;20033;-83
2022/07/18 09:26:46;;;;;;;2.53;1.38;;;30.50;45.70;;;;;;5049570;28;20033;-82
2022/07/18 09:29:16;;;;;;;11.13;1.20;;;30.60;45.80;;;;;;5050925;28;20448;-81
2022/07/18 09:31:52;;;;;;;2.88;1.10;;;30.70;45.70;;;;;;5047962;28;20033;-81
2022/07/18 09:34:34;;;;;;;6.00;1.52;;;30.80;45.70;;;;;;5049467;28;20064;-82
2022/07/18 09:36:59;;;;;;;2.72;1.17;;;30.90;43.90;;;;;;5043150;28;20033;-81
2022/07/18 09:39:25;;;;;;;1.98;0.90;;;30.90;45.20;;;;;;5051288;28;20083;-82
2022/07/18 09:41:51;;;;;;;1.45;1.20;;;31.00;45.40;;;;;;5050069;28;20513;-82
2022/07/18 09:44:18;;;;;;;3.72;1.85;;;31.10;45.50;;;;;;5051638;28;20053;-82
2022/07/18 09:47:04;;;;;;;5.15;1.98;;;31.20;45.40;;;;;;5053852;28;20603;-82
2022/07/18 09:49:34;;;;;;;2.95;1.52;;;31.20;43.80;;;;;;5055726;28;20033;-82
2022/07/18 09:52:06;;;;;;;1.38;0.80;;;31.20;44.80;;;;;;5036957;28;20037;-82
2022/07/18 09:54:36;;;;;;;3.45;1.30;;;31.30;45.10;;;;;;5036869;28;20128;-82
2022/07/18 09:57:02;;;;;;;2.17;1.40;;;31.50;44.80;;;;;;5036884;28;20031;-82
2022/07/18 09:59:28;;;;;;;3.90;1.30;;;31.60;44.60;;;;;;5055263;28;20457;-82
2022/07/18 10:01:53;;;;;;;2.25;1.15;;;31.70;44.50;;;;;;5055100;28;20100;-82
2022/07/18 10:04:19;;;;;;;3.25;1.25;;;31.80;44.40;;;;;;5055938;28;20021;-83
2022/07/18 10:06:46;;;;;;;4.97;1.25;;;31.90;44.00;;;;;;5054684;28;20044;-84
2022/07/18 10:09:12;;;;;;;7.78;1.65;;;32.00;43.70;;;;;;5053447;28;20477;-80
2022/07/18 10:11:37;;;;;;;1.52;1.00;;;32.10;43.80;;;;;;5053679;28;20083;-81
2022/07/18 10:14:03;;;;;;;2.88;1.05;;;32.10;43.70;;;;;;5056056;28;20037;-81
2022/07/18 10:16:29;;;;;;;2.38;1.10;;;32.20;43.70;;;;;;5055740;28;20032;-79
2022/07/18 10:18:55;;;;;;;2.25;1.20;;;32.30;43.60;;;;;;5054728;28;20025;-79
2022/07/18 10:21:22;;;;;;;1.35;1.00;;;32.40;43.40;;;;;;5054651;28;20043;-78
2022/07/18 10:23:49;;;;;;;4.40;1.40;;;32.50;43.30;;;;;;5053144;28;20037;-78
2022/07/18 10:26:19;;;;;;;2.85;1.10;;;32.60;43.20;;;;;;5052063;28;20476;-81
2022/07/18 10:28:58;;;;;;;8.70;2.25;;;32.70;43.30;;;;;;5055151;28;20029;-82
2022/07/18 10:31:32;;;;;;;4.87;1.93;;;32.80;43.00;;;;;;5054952;28;20036;-83
2022/07/18 10:34:07;;;;;;;1.92;1.50;;;32.90;42.80;;;;;;5051871;28;20037;-82
2022/07/18 10:50:03;;;;;;;3.20;1.20;;;33.20;41.30;;;;;;6168046;22;2009663;-75
2022/07/18 10:52:28;;;;;;;2.97;1.35;;;33.90;41.20;;;;;;6222657;23;20073;-74
2022/07/18 10:55:06;;;;;;;2.78;1.25;;;34.00;41.20;;;;;;6194689;23;20012;-75
2022/07/18 10:57:38;;;;;;;3.45;1.55;;;34.10;41.20;;;;;;6223291;23;20005;-75
2022/07/18 11:00:11;;;;;;;1.98;1.17;;;34.30;41.10;;;;;;6222487;23;19997;-74
2022/07/18 11:02:42;;;;;;;2.38;1.30;;;34.40;41.10;;;;;;6222934;23;20004;-75
2022/07/18 11:05:23;;;;;;;4.25;1.50;;;34.50;40.80;;;;;;6221938;23;20005;-75
2022/07/18 11:08:13;;;;;;;4.72;1.42;;;34.60;39.30;;;;;;6223571;23;20427;-75
2022/07/18 11:10:44;;;;;;;6.43;2.47;;;34.60;39.70;;;;;;6203690;23;20009;-75
2022/07/18 11:13:28;;;;;;;2.40;1.25;;;34.70;40.00;;;;;;6223177;23;20012;-75
2022/07/18 11:16:11;;;;;;;1.92;1.40;;;34.80;39.90;;;;;;6222636;23;20123;-74
2022/07/18 11:18:39;;;;;;;1.48;1.13;;;34.70;39.30;;;;;;6223377;23;20323;-74
2022/07/18 11:21:20;;;;;;;1.70;1.40;;;34.90;39.90;;;;;;6195214;23;20327;-74
2022/07/18 11:23:48;;;;;;;2.15;1.27;;;35.00;38.80;;;;;;6222559;23;20000;-74
2022/07/18 11:26:19;;;;;;;2.25;1.25;;;35.10;39.30;;;;;;6196613;23;20482;-74
2022/07/18 11:28:46;;;;;;;3.00;1.30;;;35.20;37.40;;;;;;6220810;23;20011;-74
2022/07/18 11:31:13;;;;;;;2.97;1.35;;;35.30;37.60;;;;;;6222710;23;20066;-74
2022/07/18 11:33:41;;;;;;;2.75;1.10;;;35.40;38.00;;;;;;6222167;23;20008;-74
2022/07/18 11:36:12;;;;;;;3.58;1.88;;;35.70;36.70;;;;;;6223211;23;20008;-78
2022/07/18 11:38:39;;;;;;;2.45;1.65;;;35.90;37.10;;;;;;6221797;23;20008;-79
2022/07/18 11:41:05;;;;;;;4.65;1.40;;;36.30;37.90;;;;;;6222262;23;20441;-79
2022/07/18 11:43:32;;;;;;;1.88;1.20;;;36.60;37.50;;;;;;6220544;23;20035;-81
2022/07/18 11:46:02;;;;;;;4.63;1.20;;;37.00;37.60;;;;;;6222121;23;20423;-81
2022/07/18 11:48:28;;;;;;;2.40;1.23;;;37.40;36.40;;;;;;6194187;23;20024;-83
2022/07/18 11:50:54;;;;;;;1.80;1.23;;;37.70;36.10;;;;;;6215279;23;20084;-82
2022/07/18 11:53:20;;;;;;;2.13;1.15;;;38.10;35.50;;;;;;6217242;23;20007;-81
2022/07/18 11:55:48;;;;;;;2.92;1.40;;;38.40;35.30;;;;;;6216044;23;20008;-77
2022/07/18 11:58:15;;;;;;;1.85;1.30;;;38.70;35.10;;;;;;6216101;23;20001;-76
2022/07/18 12:00:42;;;;;;;3.25;1.60;;;38.70;33.30;;;;;;6216641;23;20001;-77
2022/07/18 12:03:14;;;;;;;2.90;1.33;;;38.70;34.10;;;;;;6208670;23;20013;-77
2022/07/18 12:05:50;;;;;;;2.90;1.25;;;38.80;33.80;;;;;;6215872;23;20003;-77
2022/07/18 12:08:26;;;;;;;1.23;1.10;;;38.90;34.30;;;;;;6213576;23;20400;-77
2022/07/18 12:11:06;;;;;;;4.53;1.60;;;39.20;34.50;;;;;;6215555;23;20010;-80
2022/07/18 12:13:55;;;;;;;3.58;1.35;;;39.20;33.70;;;;;;6215428;23;20051;-81
2022/07/18 12:16:35;;;;;;;2.38;1.20;;;39.20;34.20;;;;;;6187410;23;20739;-80
2022/07/18 12:19:07;;;;;;;5.95;1.33;;;39.20;34.40;;;;;;6214519;23;20000;-77
2022/07/18 12:21:45;;;;;;;1.35;1.25;;;39.30;34.40;;;;;;6216009;23;20005;-76
2022/07/18 12:24:19;;;;;;;2.67;1.02;;;39.50;33.70;;;;;;6214786;23;19997;-77
2022/07/18 12:26:45;;;;;;;3.28;1.50;;;39.60;34.50;;;;;;6215342;23;20481;-77
2022/07/18 12:29:11;;;;;;;1.13;0.90;;;39.60;33.70;;;;;;6214546;23;20442;-77
2022/07/18 12:31:45;;;;;;;3.70;1.30;;;39.80;33.70;;;;;;6214910;23;20015;-77
2022/07/18 12:34:14;;;;;;;2.65;1.30;;;39.90;33.10;;;;;;6214754;23;20004;-80
2022/07/18 12:36:57;;;;;;;2.40;1.30;;;40.00;33.80;;;;;;6215267;23;20032;-81
2022/07/18 12:39:28;;;;;;;2.88;1.35;;;40.20;33.30;;;;;;6212347;23;20007;-77
2022/07/18 12:41:53;;;;;;;4.82;1.20;;;40.40;33.20;;;;;;6185000;23;20016;-77
2022/07/18 12:44:19;;;;;;;1.15;1.05;;;40.40;32.20;;;;;;6213548;23;20079;-78
2022/07/18 12:46:45;;;;;;;4.53;1.40;;;40.30;32.70;;;;;;6212974;23;19997;-77
2022/07/18 12:49:10;;;;;;;3.30;1.35;;;40.30;33.10;;;;;;6214706;23;20386;-80
2022/07/18 12:51:36;;;;;;;1.80;1.20;;;40.30;33.40;;;;;;6215276;23;20008;-76
2022/07/18 12:54:02;;;;;;;2.72;1.23;;;40.40;33.60;;;;;;6214801;23;20004;-76
2022/07/18 12:56:28;;;;;;;2.95;1.40;;;40.40;33.40;;;;;;6214676;23;20107;-76
2022/07/18 12:58:54;;;;;;;4.05;1.40;;;40.10;31.80;;;;;;6214392;23;20004;-80
2022/07/18 13:01:19;;;;;;;3.20;1.27;;;40.10;32.40;;;;;;6213733;23;20104;-76